Time;durP1;ratioP1;P1;durP2;ratioP2;P2;SDS_P1;SDS_P2;PMS_P1;PMS_P2;Temp;Humidity;BMP_temperature;BMP_pressure;BME280_temperature;BME280_humidity;BME280_pressure;Samples;Min_cycle;Max_cycle;Signal;HPM_P1;HPM_P2
2022/01/31 00:01:34;;;;;;;5.60;1.53;;;;;;;3.50;70.26;99528.81;4903913;29;20209;-81
2022/01/31 00:04:01;;;;;;;8.07;1.90;;;;;;;3.47;71.17;99533.66;4903899;29;20488;-82
2022/01/31 00:06:28;;;;;;;6.60;2.20;;;;;;;3.33;72.07;99531.78;4904247;29;20611;-80
2022/01/31 00:08:54;;;;;;;6.73;1.90;;;;;;;3.31;72.14;99525.84;4903568;29;20183;-81
2022/01/31 00:11:22;;;;;;;10.60;1.90;;;;;;;3.39;70.97;99509.88;4903877;29;20197;-80
2022/01/31 00:13:58;;;;;;;9.30;1.87;;;;;;;3.33;70.69;99516.72;4903710;29;20631;-80
2022/01/31 00:16:31;;;;;;;6.93;2.40;;;;;;;3.48;70.42;99528.19;4905457;29;20646;-80
2022/01/31 00:18:59;;;;;;;6.43;1.97;;;;;;;3.46;71.40;99529.34;4888732;29;20233;-80
2022/01/31 00:21:27;;;;;;;9.63;1.90;;;;;;;3.42;71.37;99514.81;4902732;29;20269;-80
2022/01/31 00:23:53;;;;;;;6.43;2.07;;;;;;;3.41;71.27;99515.81;4887450;29;20237;-81
2022/01/31 00:26:20;;;;;;;10.10;2.77;;;;;;;3.14;72.85;99509.22;4903800;29;20194;-79
2022/01/31 00:28:47;;;;;;;9.37;2.10;;;;;;;3.16;73.26;99515.19;4887098;29;20562;-80
2022/01/31 00:31:15;;;;;;;10.40;1.90;;;;;;;3.28;70.88;99508.47;4887934;29;20186;-80
2022/01/31 00:33:44;;;;;;;7.13;2.00;;;;;;;3.26;71.66;99496.41;4888739;29;20633;-81
2022/01/31 00:36:10;;;;;;;5.67;1.80;;;;;;;3.32;71.34;99495.69;4888136;29;20187;-81
2022/01/31 00:38:37;;;;;;;6.47;1.77;;;;;;;3.22;71.72;99506.50;4919970;29;20642;-80
2022/01/31 00:41:04;;;;;;;8.63;2.07;;;;;;;3.21;72.02;99517.28;4887671;29;20198;-80
2022/01/31 00:43:33;;;;;;;6.53;1.70;;;;;;;3.21;70.64;99510.19;4887580;29;20309;-81
2022/01/31 00:46:01;;;;;;;6.67;1.87;;;;;;;3.24;70.63;99509.00;4902740;29;20206;-81
2022/01/31 00:48:30;;;;;;;8.10;2.20;;;;;;;3.19;70.27;99474.28;4903246;29;20614;-79
2022/01/31 00:50:57;;;;;;;10.37;1.83;;;;;;;3.10;71.92;99498.16;4887961;29;20297;-80
2022/01/31 00:53:23;;;;;;;8.77;2.10;;;;;;;3.28;71.86;99481.16;4887533;29;20218;-80
2022/01/31 00:55:50;;;;;;;7.10;2.00;;;;;;;3.22;71.99;99476.59;4887514;29;20198;-80
2022/01/31 00:58:17;;;;;;;7.73;2.20;;;;;;;3.23;71.52;99480.88;4891980;29;20222;-81
2022/01/31 01:00:44;;;;;;;7.90;1.90;;;;;;;3.22;72.20;99484.53;4891663;29;20198;-80
2022/01/31 01:03:11;;;;;;;4.93;1.80;;;;;;;3.18;72.59;99486.69;4907066;29;20201;-80
2022/01/31 01:05:38;;;;;;;11.40;2.30;;;;;;;2.97;73.59;99473.28;4906411;29;20202;-80
2022/01/31 01:08:05;;;;;;;9.17;2.60;;;;;;;2.96;74.48;99482.19;4891560;29;20202;-80
2022/01/31 01:10:32;;;;;;;7.33;2.20;;;;;;;3.13;72.67;99488.25;4891965;29;20661;-80
2022/01/31 01:12:58;;;;;;;8.57;1.93;;;;;;;3.01;73.46;99478.03;4906740;29;20269;-81
2022/01/31 01:15:26;;;;;;;9.13;1.90;;;;;;;3.24;72.78;99488.63;4891622;29;20285;-81
2022/01/31 01:17:53;;;;;;;10.43;2.10;;;;;;;3.01;73.41;99475.38;4890911;29;20546;-80
2022/01/31 01:20:20;;;;;;;7.87;2.10;;;;;;;3.17;72.56;99492.19;4906861;29;20226;-80
2022/01/31 01:22:47;;;;;;;7.30;2.00;;;;;;;2.92;73.85;99480.91;4906564;29;20984;-80
2022/01/31 01:25:14;;;;;;;8.80;2.00;;;;;;;3.00;74.59;99488.78;4891007;29;20190;-82
2022/01/31 01:27:43;;;;;;;4.80;1.80;;;;;;;3.04;74.62;99492.72;4891275;29;20202;-80
2022/01/31 01:30:11;;;;;;;7.37;2.00;;;;;;;3.03;75.03;99501.69;4891292;29;20734;-80
2022/01/31 01:32:49;;;;;;;6.47;1.87;;;;;;;3.12;74.07;99479.47;4906068;29;20194;-80
2022/01/31 01:35:16;;;;;;;9.30;2.00;;;;;;;3.16;74.50;99483.41;4877259;29;20215;-81
2022/01/31 01:37:43;;;;;;;7.67;2.60;;;;;;;3.16;74.12;99464.88;4907023;29;20190;-80
2022/01/31 01:40:10;;;;;;;6.90;2.40;;;;;;;3.27;74.10;99468.91;4891202;29;20240;-80
2022/01/31 01:42:37;;;;;;;7.90;2.13;;;;;;;3.02;75.87;99450.56;4906882;29;20230;-80
2022/01/31 01:45:05;;;;;;;6.50;2.00;;;;;;;3.23;74.74;99441.97;4891833;29;20222;-80
2022/01/31 01:47:37;;;;;;;6.80;1.90;;;;;;;3.20;75.29;99462.69;4906544;29;20261;-80
2022/01/31 01:50:05;;;;;;;5.87;1.90;;;;;;;3.21;75.87;99446.63;4923333;29;20244;-80
2022/01/31 01:52:32;;;;;;;9.80;2.30;;;;;;;3.13;75.89;99451.97;4875703;29;20233;-81
2022/01/31 01:54:58;;;;;;;7.57;1.90;;;;;;;3.25;75.73;99445.28;4875731;29;20201;-81
2022/01/31 01:57:27;;;;;;;7.33;2.53;;;;;;;3.30;76.14;99450.03;4890244;29;20198;-80
2022/01/31 01:59:56;;;;;;;4.87;1.57;;;;;;;3.32;75.27;99443.56;4891516;29;20198;-81
2022/01/31 02:02:43;;;;;;;6.77;1.77;;;;;;;3.32;75.29;99448.84;4909080;29;20210;-80
2022/01/31 02:05:14;;;;;;;6.73;1.93;;;;;;;3.25;75.10;99434.69;4890869;29;20210;-80
2022/01/31 02:07:42;;;;;;;7.30;2.50;;;;;;;3.27;74.95;99411.50;4905055;29;20221;-80
2022/01/31 02:10:13;;;;;;;8.20;2.17;;;;;;;3.33;75.24;99434.63;4890627;29;20289;-80
2022/01/31 02:13:06;;;;;;;4.43;1.80;;;;;;;3.32;74.85;99410.97;4880402;29;20194;-81
2022/01/31 02:16:00;;;;;;;7.37;2.07;;;;;;;3.28;75.05;99421.09;4881455;29;20203;-80
2022/01/31 02:18:48;;;;;;;7.07;1.93;;;;;;;3.09;76.58;99414.44;4878196;29;20202;-80
2022/01/31 02:21:52;;;;;;;6.47;1.70;;;;;;;3.12;76.32;99405.34;4845537;29;20280;-80
2022/01/31 02:24:38;;;;;;;9.57;2.10;;;;;;;3.10;76.22;99405.50;4917301;29;20282;-80
2022/01/31 02:27:35;;;;;;;9.10;2.27;;;;;;;3.01;76.38;99395.16;4895371;29;20497;-80
2022/01/31 02:30:11;;;;;;;8.57;1.90;;;;;;;3.15;75.30;99399.69;4890448;29;20198;-81
2022/01/31 02:32:44;;;;;;;6.97;2.20;;;;;;;3.10;76.25;99402.88;4876883;29;20198;-81
2022/01/31 02:35:11;;;;;;;10.73;2.03;;;;;;;3.15;75.83;99404.16;4875184;29;20255;-81
2022/01/31 02:37:38;;;;;;;8.17;1.97;;;;;;;3.09;76.50;99401.22;4890136;29;20198;-80
2022/01/31 02:40:37;;;;;;;6.70;2.07;;;;;;;3.12;75.37;99392.13;4898900;29;20202;-81
2022/01/31 02:43:04;;;;;;;10.43;2.07;;;;;;;3.10;75.60;99394.94;4889865;29;20206;-80
2022/01/31 02:45:32;;;;;;;7.33;2.20;;;;;;;3.20;74.81;99391.22;4889812;29;20198;-80
2022/01/31 02:48:02;;;;;;;9.30;2.10;;;;;;;3.13;74.76;99379.69;4889774;29;20286;-80
2022/01/31 02:50:32;;;;;;;8.43;2.53;;;;;;;3.01;75.25;99377.47;4889821;29;20274;-81
2022/01/31 02:53:22;;;;;;;8.23;2.60;;;;;;;3.12;74.63;99375.41;4889944;29;20230;-80
2022/01/31 02:55:50;;;;;;;9.93;2.27;;;;;;;3.16;73.87;99382.81;4892631;29;20190;-80
2022/01/31 02:58:20;;;;;;;12.00;2.10;;;;;;;3.02;75.06;99371.19;4890650;29;20265;-80
2022/01/31 03:00:49;;;;;;;10.27;2.30;;;;;;;3.10;74.59;99380.88;4895739;29;20199;-80
2022/01/31 03:03:26;;;;;;;8.83;2.20;;;;;;;3.05;75.00;99359.41;4871340;29;20211;-80
2022/01/31 03:05:54;;;;;;;6.37;2.10;;;;;;;2.89;75.86;99344.47;4871322;29;20198;-80
2022/01/31 03:08:23;;;;;;;9.47;2.00;;;;;;;2.87;76.68;99353.59;4870839;29;20251;-80
2022/01/31 03:10:53;;;;;;;8.97;1.67;;;;;;;2.96;76.25;99348.06;4870906;29;20242;-80
2022/01/31 03:13:34;;;;;;;8.30;2.20;;;;;;;2.84;76.33;99325.69;4886045;29;20219;-80
2022/01/31 03:16:01;;;;;;;8.17;2.20;;;;;;;2.72;76.95;99324.44;4869877;29;20195;-81
2022/01/31 03:18:46;;;;;;;9.03;1.90;;;;;;;2.61;77.78;99320.38;4888440;29;20194;-79
2022/01/31 03:21:14;;;;;;;13.27;2.20;;;;;;;2.63;78.29;99313.09;4870050;29;20207;-82
2022/01/31 03:23:41;;;;;;;10.50;1.90;;;;;;;2.69;77.27;99306.28;4855489;29;20349;-81
2022/01/31 03:26:08;;;;;;;6.70;2.00;;;;;;;2.56;77.97;99301.59;4855081;29;20207;-79
2022/01/31 03:28:35;;;;;;;7.87;2.00;;;;;;;2.56;78.54;99304.22;4871203;29;20649;-83
2022/01/31 03:31:01;;;;;;;8.00;2.07;;;;;;;2.39;78.50;99285.97;4870446;29;20510;-80
2022/01/31 03:33:33;;;;;;;6.70;2.00;;;;;;;2.45;78.52;99290.56;4870541;29;20199;-80
2022/01/31 03:36:00;;;;;;;9.03;2.47;;;;;;;2.36;78.56;99276.59;4855295;29;20206;-80
2022/01/31 03:38:27;;;;;;;6.20;2.10;;;;;;;2.35;79.03;99274.13;4869457;29;20186;-81
2022/01/31 03:40:54;;;;;;;7.57;2.20;;;;;;;2.22;80.20;99272.88;4854797;29;20198;-81
2022/01/31 03:43:22;;;;;;;8.80;2.10;;;;;;;2.20;80.89;99268.75;4885728;29;20234;-80
2022/01/31 03:45:49;;;;;;;9.77;2.30;;;;;;;2.00;80.90;99244.63;4869857;29;20231;-81
2022/01/31 03:48:21;;;;;;;8.07;2.47;;;;;;;1.85;82.75;99232.31;4885090;29;20301;-81
2022/01/31 03:50:49;;;;;;;9.80;1.83;;;;;;;1.79;83.72;99231.19;4854606;29;20203;-80
2022/01/31 03:53:16;;;;;;;8.83;1.83;;;;;;;1.91;83.61;99244.84;4870261;29;20206;-80
2022/01/31 03:55:43;;;;;;;11.97;2.27;;;;;;;1.89;83.47;99221.22;4869392;29;20199;-80
2022/01/31 03:58:10;;;;;;;8.00;2.10;;;;;;;1.97;82.77;99230.91;4869472;29;20193;-81
2022/01/31 04:00:50;;;;;;;10.53;2.23;;;;;;;1.80;83.78;99229.38;4886684;29;20175;-80
2022/01/31 04:03:17;;;;;;;10.23;2.33;;;;;;;1.86;84.71;99213.66;4885493;29;20233;-80
2022/01/31 04:05:44;;;;;;;8.37;2.23;;;;;;;1.72;85.36;99203.81;4885236;29;20294;-81
2022/01/31 04:08:12;;;;;;;6.63;2.40;;;;;;;1.71;85.46;99200.38;4901766;29;20195;-81
2022/01/31 04:10:38;;;;;;;9.17;2.10;;;;;;;1.78;86.26;99209.22;4884910;29;20199;-80
2022/01/31 04:13:06;;;;;;;8.10;2.23;;;;;;;1.83;85.45;99210.50;4870366;29;20293;-82
2022/01/31 04:15:36;;;;;;;9.03;2.43;;;;;;;1.62;86.84;99219.88;4885559;29;20227;-80
2022/01/31 04:18:03;;;;;;;8.60;2.03;;;;;;;1.58;87.20;99210.66;4869771;29;20195;-80
2022/01/31 04:20:30;;;;;;;8.97;2.13;;;;;;;1.51;88.83;99204.41;4869745;29;20191;-81
2022/01/31 04:23:02;;;;;;;9.33;2.70;;;;;;;1.45;89.48;99196.34;4901426;29;20219;-80
2022/01/31 04:25:31;;;;;;;6.97;2.13;;;;;;;1.48;89.76;99201.31;4901818;29;20555;-81
2022/01/31 04:28:14;;;;;;;5.53;1.70;;;;;;;1.55;90.71;99192.50;4869536;29;20414;-81
2022/01/31 04:30:49;;;;;;;9.40;2.07;;;;;;;1.45;90.82;99189.25;4901144;29;20187;-80
2022/01/31 04:33:16;;;;;;;10.77;3.03;;;;;;;1.37;90.86;99178.75;4886720;29;20186;-80
2022/01/31 04:35:43;;;;;;;5.23;1.40;;;;;;;1.42;91.36;99176.41;4884678;29;20601;-80
2022/01/31 04:38:10;;;;;;;8.17;2.50;;;;;;;1.24;92.85;99175.81;4884553;29;20197;-81
2022/01/31 04:40:36;;;;;;;8.03;2.10;;;;;;;1.18;96.42;99173.88;4885074;29;20496;-81
2022/01/31 04:43:03;;;;;;;9.53;1.83;;;;;;;1.15;96.69;99171.56;4869276;29;20249;-80
2022/01/31 04:45:30;;;;;;;6.23;2.10;;;;;;;1.09;97.76;99154.59;4885410;29;20209;-80
2022/01/31 04:47:56;;;;;;;8.77;1.97;;;;;;;1.12;97.82;99150.81;4885489;29;20207;-80
2022/01/31 04:50:23;;;;;;;7.67;2.03;;;;;;;1.14;99.48;99136.44;4901274;29;20199;-80
2022/01/31 04:52:50;;;;;;;8.60;1.70;;;;;;;1.16;100.00;99142.38;4901374;29;20187;-80
2022/01/31 04:55:16;;;;;;;6.77;1.90;;;;;;;1.14;100.00;99119.78;4901883;29;20190;-81
2022/01/31 04:57:44;;;;;;;8.90;2.10;;;;;;;1.23;99.16;99118.75;4884710;29;20214;-79
2022/01/31 05:00:11;;;;;;;6.40;1.63;;;;;;;1.18;100.00;99115.81;4885026;29;20198;-80
2022/01/31 05:02:38;;;;;;;5.90;1.90;;;;;;;1.10;100.00;99105.31;4869791;29;20202;-81
2022/01/31 05:05:05;;;;;;;7.73;2.10;;;;;;;1.11;100.00;99101.69;4885972;29;20535;-81
2022/01/31 05:07:33;;;;;;;8.73;2.30;;;;;;;1.29;97.82;99081.97;4886202;29;20191;-81
2022/01/31 05:10:00;;;;;;;7.97;2.60;;;;;;;1.16;98.94;99067.69;4885610;29;20199;-80
2022/01/31 05:12:27;;;;;;;9.37;2.50;;;;;;;1.19;100.00;99083.16;4870091;29;20203;-81
2022/01/31 05:14:53;;;;;;;10.10;2.60;;;;;;;1.11;100.00;99067.38;4885343;29;20203;-80
2022/01/31 05:17:20;;;;;;;8.80;2.40;;;;;;;1.03;100.00;99059.47;4884657;29;20223;-82
2022/01/31 05:19:47;;;;;;;7.93;2.43;;;;;;;1.13;100.00;99060.09;4885048;29;20195;-79
2022/01/31 05:22:14;;;;;;;6.80;2.23;;;;;;;1.04;100.00;99042.66;4885320;29;20238;-82
2022/01/31 05:24:41;;;;;;;9.97;2.70;;;;;;;1.05;100.00;99045.16;4884701;29;20227;-80
2022/01/31 05:27:08;;;;;;;9.50;2.90;;;;;;;0.97;100.00;99037.28;4885479;29;20246;-80
2022/01/31 05:29:34;;;;;;;8.97;3.00;;;;;;;0.87;100.00;99026.94;4901232;29;20195;-81
2022/01/31 05:32:01;;;;;;;8.10;3.10;;;;;;;0.95;100.00;99027.88;4870137;29;20203;-81
2022/01/31 05:34:28;;;;;;;6.83;3.93;;;;;;;0.92;100.00;99017.69;4884727;29;20643;-81
2022/01/31 05:36:56;;;;;;;11.33;3.97;;;;;;;0.91;100.00;99016.03;4884336;29;20195;-81
2022/01/31 05:39:24;;;;;;;10.37;5.13;;;;;;;0.91;100.00;99006.31;4885131;29;20218;-80
2022/01/31 05:41:52;;;;;;;12.63;4.90;;;;;;;0.86;100.00;98990.19;4869880;29;20209;-79
2022/01/31 05:44:20;;;;;;;9.70;4.60;;;;;;;0.81;100.00;98985.41;4871848;29;20326;-80
2022/01/31 05:46:47;;;;;;;11.73;4.43;;;;;;;0.84;100.00;98974.50;4888663;29;20568;-81
2022/01/31 05:49:14;;;;;;;8.70;4.20;;;;;;;0.88;100.00;98993.47;4887941;29;20278;-80
2022/01/31 05:51:52;;;;;;;10.57;4.90;;;;;;;0.81;100.00;98984.59;4873237;29;20195;-81
2022/01/31 05:54:19;;;;;;;9.80;4.70;;;;;;;0.83;100.00;98982.63;4888581;29;20219;-80
2022/01/31 05:56:46;;;;;;;12.80;5.03;;;;;;;0.86;100.00;98988.38;4872317;29;20231;-82
2022/01/31 05:59:13;;;;;;;15.67;8.27;;;;;;;0.87;100.00;98984.75;4889059;29;20229;-81
2022/01/31 06:01:40;;;;;;;17.33;8.00;;;;;;;0.93;100.00;98992.97;4905302;29;20199;-81
2022/01/31 06:04:07;;;;;;;16.73;7.53;;;;;;;0.86;100.00;98980.47;4873100;29;20215;-80
2022/01/31 06:06:33;;;;;;;17.67;9.37;;;;;;;0.86;100.00;98966.44;4888296;29;20202;-82
2022/01/31 06:09:01;;;;;;;20.60;9.97;;;;;;;0.94;100.00;98968.19;4887956;29;20467;-80
2022/01/31 06:11:27;;;;;;;19.13;9.03;;;;;;;0.93;100.00;98956.03;4887496;29;20183;-81
2022/01/31 06:13:55;;;;;;;14.50;7.60;;;;;;;0.93;100.00;98950.75;4874079;29;20192;-81
2022/01/31 06:16:22;;;;;;;15.33;7.20;;;;;;;0.95;100.00;98944.28;4888143;29;20199;-81
2022/01/31 06:18:49;;;;;;;13.40;5.13;;;;;;;0.98;100.00;98940.50;4888872;29;20211;-80
2022/01/31 06:21:16;;;;;;;9.90;4.40;;;;;;;1.00;100.00;98927.94;4872297;29;20216;-81
2022/01/31 06:23:42;;;;;;;12.10;3.33;;;;;;;1.07;100.00;98910.44;4888598;29;20306;-80
2022/01/31 06:26:09;;;;;;;8.43;3.43;;;;;;;1.10;100.00;98875.78;4888609;29;20662;-81
2022/01/31 06:28:36;;;;;;;8.93;3.00;;;;;;;1.10;100.00;98865.22;4889454;29;20203;-81
2022/01/31 06:31:23;;;;;;;8.00;3.00;;;;;;;1.13;100.00;98860.41;4887700;29;20588;-81
2022/01/31 06:33:50;;;;;;;9.07;2.43;;;;;;;1.14;100.00;98851.50;4906603;29;20198;-80
2022/01/31 06:36:17;;;;;;;14.40;3.23;;;;;;;1.18;100.00;98854.59;4931670;29;20494;-82
2022/01/31 06:38:45;;;;;;;9.97;2.90;;;;;;;1.06;100.00;98858.66;4891106;29;20198;-80
2022/01/31 06:41:13;;;;;;;13.23;3.53;;;;;;;1.10;100.00;98873.13;4906835;29;20289;-80
2022/01/31 06:43:39;;;;;;;10.17;3.20;;;;;;;1.14;100.00;98896.34;4906648;29;20305;-81
2022/01/31 06:46:06;;;;;;;9.97;3.30;;;;;;;1.21;100.00;98907.81;4891108;29;20249;-81
2022/01/31 06:48:34;;;;;;;11.97;3.20;;;;;;;1.28;100.00;98921.97;4906796;29;20190;-81
2022/01/31 06:51:00;;;;;;;8.77;3.30;;;;;;;1.14;100.00;98914.00;4905527;29;20194;-80
2022/01/31 06:53:28;;;;;;;9.50;4.37;;;;;;;1.31;100.00;98900.47;4906826;29;20579;-81
2022/01/31 06:55:56;;;;;;;12.47;4.70;;;;;;;1.24;100.00;98919.84;4905953;29;20269;-81
2022/01/31 06:58:23;;;;;;;13.80;4.50;;;;;;;1.16;100.00;98912.00;4891256;29;20194;-81
2022/01/31 07:00:50;;;;;;;11.80;4.70;;;;;;;1.08;100.00;98912.88;4906253;29;20190;-80
2022/01/31 07:03:17;;;;;;;12.27;5.33;;;;;;;1.23;100.00;98931.41;4892106;29;20253;-81
2022/01/31 07:05:44;;;;;;;12.87;4.63;;;;;;;1.30;100.00;98929.72;4942536;29;20198;-80
2022/01/31 07:08:13;;;;;;;8.37;4.50;;;;;;;1.35;100.00;98908.06;4907930;29;20265;-81
2022/01/31 07:10:51;;;;;;;13.70;4.17;;;;;;;1.45;100.00;98927.09;4924968;29;20194;-81
2022/01/31 07:13:36;;;;;;;9.87;3.90;;;;;;;1.56;100.00;98916.94;4937986;29;20206;-81
2022/01/31 07:16:05;;;;;;;12.97;4.40;;;;;;;1.56;100.00;98908.19;4903882;29;20226;-82
2022/01/31 07:18:33;;;;;;;11.93;4.97;;;;;;;1.59;100.00;98908.63;4919434;29;20217;-81
2022/01/31 07:21:01;;;;;;;13.93;4.63;;;;;;;1.64;100.00;98914.19;4910352;29;20570;-81
2022/01/31 07:23:38;;;;;;;13.17;4.50;;;;;;;1.57;100.00;98901.91;4919046;29;20266;-82
2022/01/31 07:26:05;;;;;;;8.60;3.73;;;;;;;1.69;100.00;98903.09;4889977;29;20564;-81
2022/01/31 07:28:31;;;;;;;8.77;3.53;;;;;;;1.76;100.00;98898.75;4887848;29;20209;-80
2022/01/31 07:30:58;;;;;;;13.60;4.03;;;;;;;1.86;100.00;98886.09;4920600;29;20187;-82
2022/01/31 07:33:25;;;;;;;13.43;3.80;;;;;;;1.95;100.00;98863.88;4901941;29;20200;-80
2022/01/31 07:35:53;;;;;;;10.43;3.83;;;;;;;2.05;100.00;98859.09;4920315;29;20209;-80
2022/01/31 07:38:21;;;;;;;11.50;3.50;;;;;;;2.24;97.78;98878.84;4902087;29;20224;-82
2022/01/31 07:40:51;;;;;;;8.90;3.40;;;;;;;2.27;97.82;98886.44;4884945;29;20541;-81
2022/01/31 07:43:18;;;;;;;9.90;3.50;;;;;;;2.37;97.72;98879.03;4886213;29;20369;-82
2022/01/31 07:45:44;;;;;;;7.93;3.33;;;;;;;2.46;96.48;98888.50;4886498;29;20214;-80
2022/01/31 07:48:11;;;;;;;10.87;3.90;;;;;;;2.60;94.15;98886.81;4902012;29;20647;-81
2022/01/31 07:50:38;;;;;;;7.43;2.57;;;;;;;2.73;94.35;98865.78;4903522;29;20202;-83
2022/01/31 07:53:05;;;;;;;10.47;2.60;;;;;;;2.98;92.54;98872.38;4902673;29;20250;-82
2022/01/31 07:55:32;;;;;;;12.17;3.23;;;;;;;3.11;92.60;98871.66;4886358;29;20583;-80
2022/01/31 07:57:59;;;;;;;9.80;3.30;;;;;;;3.22;91.33;98859.75;4871219;29;20199;-82
2022/01/31 08:00:44;;;;;;;10.63;3.30;;;;;;;3.31;89.67;98863.91;4902889;29;20206;-83
2022/01/31 08:03:12;;;;;;;8.53;2.80;;;;;;;3.34;88.54;98871.44;4886415;29;20218;-82
2022/01/31 08:05:39;;;;;;;12.80;3.13;;;;;;;3.41;87.48;98862.53;4901531;29;20254;-80
2022/01/31 08:08:06;;;;;;;9.80;2.67;;;;;;;3.47;88.59;98858.31;4904412;29;20567;-81
2022/01/31 08:10:35;;;;;;;12.30;3.40;;;;;;;3.59;88.66;98851.47;4888639;29;20200;-81
2022/01/31 08:13:04;;;;;;;10.30;3.40;;;;;;;3.73;86.04;98847.06;4889666;29;20186;-80
2022/01/31 08:15:33;;;;;;;10.33;3.10;;;;;;;3.65;87.16;98840.09;4904952;29;20187;-82
2022/01/31 08:18:00;;;;;;;10.20;3.17;;;;;;;3.62;86.41;98837.84;4889574;29;20206;-81
2022/01/31 08:20:27;;;;;;;9.93;3.83;;;;;;;3.65;85.99;98840.09;4888548;29;20228;-83
2022/01/31 08:22:53;;;;;;;10.63;3.47;;;;;;;3.73;85.42;98829.34;4921844;29;20230;-82
2022/01/31 08:25:20;;;;;;;7.23;3.07;;;;;;;3.94;86.23;98831.06;4921852;29;20666;-82
2022/01/31 08:27:49;;;;;;;10.97;3.37;;;;;;;3.94;82.63;98807.22;4905014;29;20209;-83
2022/01/31 08:30:22;;;;;;;8.17;2.93;;;;;;;4.04;81.69;98799.72;4889634;29;20445;-82
2022/01/31 08:32:59;;;;;;;7.33;3.17;;;;;;;4.22;80.41;98813.25;4921077;29;20183;-81
2022/01/31 08:38:12;;;;;;;8.93;3.00;;;;;;;4.32;80.49;98795.16;4922164;29;20471;-80
2022/01/31 08:40:39;;;;;;;11.37;3.13;;;;;;;4.42;80.08;98802.72;4904108;29;20264;-81
2022/01/31 08:43:06;;;;;;;8.83;2.90;;;;;;;4.52;79.39;98805.81;4919693;29;20590;-80
2022/01/31 08:45:34;;;;;;;9.67;2.83;;;;;;;4.51;79.48;98795.38;4902365;29;20202;-80
2022/01/31 08:48:02;;;;;;;9.97;3.07;;;;;;;4.52;79.64;98792.53;4902369;29;20690;-81
2022/01/31 08:50:29;;;;;;;9.13;3.07;;;;;;;4.53;78.30;98796.00;4916447;29;20194;-80
2022/01/31 08:52:56;;;;;;;9.73;3.20;;;;;;;4.58;77.66;98789.06;4903075;29;20205;-81
2022/01/31 08:55:24;;;;;;;10.80;3.80;;;;;;;4.69;76.65;98798.28;4887509;29;20222;-81
2022/01/31 08:57:53;;;;;;;12.43;4.23;;;;;;;4.56;78.25;98788.47;4872111;29;20194;-82
2022/01/31 09:00:20;;;;;;;11.37;4.80;;;;;;;4.50;78.46;98775.19;4903955;29;20194;-81
2022/01/31 09:03:02;;;;;;;9.13;4.27;;;;;;;4.54;78.23;98787.03;4886921;29;20199;-82
2022/01/31 09:05:29;;;;;;;9.23;3.33;;;;;;;4.42;77.15;98779.66;4888896;29;20257;-82
2022/01/31 09:07:56;;;;;;;12.20;4.00;;;;;;;4.43;76.49;98762.72;4900742;29;20194;-80
2022/01/31 09:10:22;;;;;;;16.77;3.73;;;;;;;4.49;76.06;98757.63;4884793;29;20274;-80
2022/01/31 09:12:49;;;;;;;13.33;4.13;;;;;;;4.39;77.20;98758.84;4885784;29;20191;-83
2022/01/31 09:15:16;;;;;;;11.27;2.97;;;;;;;4.46;77.38;98750.09;4884059;29;20198;-80
2022/01/31 09:17:43;;;;;;;12.23;3.13;;;;;;;4.50;77.96;98749.47;4901564;29;20201;-80
2022/01/31 09:20:10;;;;;;;7.87;2.50;;;;;;;4.63;78.04;98740.72;4888349;29;20277;-80
2022/01/31 09:22:37;;;;;;;6.87;2.77;;;;;;;4.59;79.31;98735.00;4887633;29;20198;-81
2022/01/31 09:25:05;;;;;;;8.70;2.90;;;;;;;4.65;78.89;98728.88;4872830;29;20314;-81
2022/01/31 09:27:32;;;;;;;9.33;3.00;;;;;;;4.73;77.41;98722.56;4888742;29;20191;-82
2022/01/31 09:29:59;;;;;;;7.73;3.13;;;;;;;4.65;77.42;98707.66;4873278;29;20225;-79
2022/01/31 09:32:26;;;;;;;9.03;3.17;;;;;;;4.72;78.34;98697.84;4888512;29;20580;-83
2022/01/31 09:34:53;;;;;;;11.27;3.23;;;;;;;4.84;78.47;98688.25;4904933;29;20194;-79
2022/01/31 09:37:21;;;;;;;8.87;3.43;;;;;;;4.88;78.00;98676.22;4887740;29;20290;-81
2022/01/31 09:39:48;;;;;;;9.43;3.37;;;;;;;4.90;77.92;98673.34;4886690;29;20201;-78
2022/01/31 09:42:24;;;;;;;11.27;5.40;;;;;;;4.83;77.54;98667.22;4923096;29;20197;-80
2022/01/31 09:45:08;;;;;;;7.33;3.73;;;;;;;4.79;77.83;98660.72;4890361;29;20232;-82
2022/01/31 09:50:20;;;;;;;8.00;2.70;;;;;;;4.67;78.06;98638.44;4893542;29;20598;-81
2022/01/31 09:52:48;;;;;;;10.53;3.17;;;;;;;4.73;76.44;98643.75;4922007;29;20274;-81
2022/01/31 09:55:15;;;;;;;9.53;2.80;;;;;;;4.71;75.93;98643.13;4875859;29;20285;-81
2022/01/31 09:57:41;;;;;;;8.80;3.17;;;;;;;4.69;76.38;98647.03;4906650;29;20201;-80
2022/01/31 10:00:09;;;;;;;13.20;3.50;;;;;;;4.74;77.21;98652.53;4891460;29;20190;-81
2022/01/31 10:03:05;;;;;;;11.80;2.73;;;;;;;4.67;77.19;98641.09;4877678;29;20194;-81
2022/01/31 10:05:32;;;;;;;8.60;2.70;;;;;;;4.61;77.17;98629.50;4876124;29;20646;-82
2022/01/31 10:08:09;;;;;;;7.83;2.60;;;;;;;4.51;77.59;98629.09;4923868;29;20190;-83
2022/01/31 10:10:42;;;;;;;9.20;2.80;;;;;;;4.54;77.53;98622.56;4891424;29;20296;-80
2022/01/31 10:16:27;;;;;;;13.13;5.80;;;;;;;4.47;78.60;98605.84;4907829;29;20221;-83
2022/01/31 10:18:58;;;;;;;7.70;3.13;;;;;;;4.43;78.79;98579.72;4893479;29;20198;-81
2022/01/31 10:21:26;;;;;;;8.87;2.90;;;;;;;4.43;79.05;98566.44;4906891;29;20293;-81
2022/01/31 10:23:53;;;;;;;6.70;2.63;;;;;;;4.39;79.19;98575.03;4906378;29;20230;-83
2022/01/31 10:26:46;;;;;;;7.80;3.03;;;;;;;4.36;79.17;98589.53;4890422;29;20186;-80
2022/01/31 10:29:15;;;;;;;10.80;3.10;;;;;;;4.27;79.59;98580.16;4887052;29;20213;-83
2022/01/31 10:32:01;;;;;;;8.60;3.10;;;;;;;4.21;78.78;98578.31;4905850;29;20217;-81
2022/01/31 10:34:31;;;;;;;7.33;3.00;;;;;;;4.12;80.96;98594.63;4890772;29;20582;-81
2022/01/31 10:37:03;;;;;;;8.60;3.23;;;;;;;4.02;81.42;98592.34;4891475;29;20237;-83
2022/01/31 10:45:38;;;;;;;11.43;3.13;;;;;;;3.97;77.55;98597.44;4910229;29;20225;-82
2022/01/31 10:56:52;;;;;;;8.83;2.97;;;;;;;4.12;74.14;98557.50;4924775;29;20304;-80
2022/01/31 10:59:22;;;;;;;10.90;4.00;;;;;;;4.21;73.81;98537.72;4876912;29;20199;-80
2022/01/31 11:01:55;;;;;;;10.83;3.73;;;;;;;4.26;73.40;98538.72;4907139;29;20189;-81
2022/01/31 11:04:36;;;;;;;11.33;3.73;;;;;;;4.32;72.70;98534.44;4909760;29;20505;-80
2022/01/31 11:07:08;;;;;;;7.53;3.67;;;;;;;4.33;72.32;98515.69;4891583;29;20207;-81
2022/01/31 11:09:35;;;;;;;7.70;3.00;;;;;;;4.38;71.87;98496.50;4890847;29;20274;-82
2022/01/31 11:12:03;;;;;;;8.93;3.07;;;;;;;4.41;70.49;98477.53;4906586;29;20254;-80
2022/01/31 11:14:30;;;;;;;7.03;2.70;;;;;;;4.39;70.43;98475.06;4890834;29;20266;-82
2022/01/31 11:16:57;;;;;;;8.87;3.10;;;;;;;4.38;70.77;98468.16;4905980;29;20190;-81
2022/01/31 11:19:31;;;;;;;10.93;3.20;;;;;;;4.30;70.83;98460.41;4887995;29;20225;-81
2022/01/31 11:22:02;;;;;;;7.90;3.43;;;;;;;4.28;70.76;98459.00;4887573;29;20281;-82
2022/01/31 11:24:33;;;;;;;8.77;3.30;;;;;;;4.22;70.57;98444.72;4901773;29;20241;-81
2022/01/31 11:27:08;;;;;;;10.50;4.00;;;;;;;4.16;70.66;98442.91;4887534;29;20285;-82
2022/01/31 11:29:40;;;;;;;12.70;5.77;;;;;;;4.04;70.98;98428.66;4895868;29;20250;-82
2022/01/31 11:32:07;;;;;;;9.27;5.00;;;;;;;4.04;70.96;98425.19;4898526;29;20182;-82
2022/01/31 11:34:38;;;;;;;10.27;6.00;;;;;;;4.08;71.27;98434.34;4902369;29;20190;-82
2022/01/31 11:37:09;;;;;;;14.13;6.43;;;;;;;4.11;71.20;98424.16;4917197;29;20250;-82
2022/01/31 11:39:38;;;;;;;14.33;6.80;;;;;;;4.28;70.47;98417.38;4925788;29;20202;-83
2022/01/31 11:42:05;;;;;;;15.10;6.67;;;;;;;4.33;68.73;98409.63;4902009;29;20218;-80
2022/01/31 11:45:01;;;;;;;9.77;4.80;;;;;;;4.55;68.44;98404.03;4886893;29;20521;-80
2022/01/31 11:47:30;;;;;;;10.87;5.70;;;;;;;4.77;67.85;98405.34;4901411;29;20571;-81
2022/01/31 11:49:59;;;;;;;16.37;7.83;;;;;;;4.92;67.54;98394.44;4907548;29;20206;-81
2022/01/31 11:52:31;;;;;;;12.17;5.57;;;;;;;5.19;66.71;98387.94;4904330;29;20202;-82
2022/01/31 11:55:03;;;;;;;10.43;5.33;;;;;;;5.31;65.73;98364.97;4904182;29;20224;-81
2022/01/31 11:57:32;;;;;;;14.30;5.50;;;;;;;5.73;64.67;98369.53;4903712;29;20187;-81
2022/01/31 12:00:05;;;;;;;9.90;4.70;;;;;;;6.17;62.89;98370.31;4903216;29;20197;-83
2022/01/31 12:02:45;;;;;;;10.87;4.77;;;;;;;6.30;60.92;98364.84;4904548;29;20269;-80
2022/01/31 12:05:26;;;;;;;9.13;4.10;;;;;;;6.56;59.95;98345.91;4902976;29;20203;-81
2022/01/31 12:08:18;;;;;;;8.97;3.87;;;;;;;6.71;58.95;98342.84;4919065;29;20190;-81
2022/01/31 12:10:54;;;;;;;8.60;4.10;;;;;;;6.70;59.44;98343.88;4887304;29;20285;-83
2022/01/31 12:13:45;;;;;;;9.43;4.30;;;;;;;6.91;59.48;98339.88;4902408;29;20285;-78